Time;durP1;ratioP1;P1;durP2;ratioP2;P2;SDS_P1;SDS_P2;PMS_P1;PMS_P2;Temp;Humidity;BMP_temperature;BMP_pressure;BME280_temperature;BME280_humidity;BME280_pressure;Samples;Min_cycle;Max_cycle;Signal;HPM_P1;HPM_P2
2023/07/29 00:00:19;;;;;;;1.98;0.20;;;;;;;18.94;100.00;99840.66;5023640;28;20490;-59
2023/07/29 00:02:45;;;;;;;2.58;0.00;;;;;;;18.94;100.00;99839.84;5022932;28;20056;-55
2023/07/29 00:05:10;;;;;;;0.30;0.00;;;;;;;18.92;100.00;99845.50;5018126;28;20061;-59
2023/07/29 00:07:35;;;;;;;4.00;0.28;;;;;;;18.79;100.00;99851.31;5015151;28;20033;-58
2023/07/29 00:10:01;;;;;;;1.20;0.10;;;;;;;18.77;100.00;99858.84;5017080;28;20036;-60
2023/07/29 00:12:26;;;;;;;2.47;0.10;;;;;;;18.56;100.00;99876.69;5013031;28;20474;-62
2023/07/29 00:14:51;;;;;;;0.55;0.20;;;;;;;18.50;100.00;99875.00;5018108;28;20034;-62
2023/07/29 00:17:16;;;;;;;0.75;0.60;;;;;;;18.42;100.00;99881.66;5017048;28;20521;-55
2023/07/29 00:19:42;;;;;;;2.10;0.93;;;;;;;18.48;100.00;99890.56;5023307;28;20231;-51
2023/07/29 00:22:08;;;;;;;0.25;0.05;;;;;;;18.43;100.00;99880.63;5019121;28;20418;-57
2023/07/29 00:24:33;;;;;;;1.58;0.10;;;;;;;18.33;100.00;99882.38;5016245;28;20034;-49
2023/07/29 00:26:59;;;;;;;0.10;0.00;;;;;;;18.29;100.00;99876.75;5017280;28;20103;-61
2023/07/29 00:29:24;;;;;;;1.05;0.30;;;;;;;18.26;100.00;99858.47;5024524;28;20407;-62
2023/07/29 00:31:49;;;;;;;1.02;0.08;;;;;;;18.13;100.00;99853.53;5025052;28;20049;-61
2023/07/29 00:34:19;;;;;;;1.10;0.10;;;;;;;18.03;100.00;99854.25;5018998;28;20022;-63
2023/07/29 00:36:44;;;;;;;0.28;0.13;;;;;;;18.05;100.00;99855.63;5022688;28;20034;-54
2023/07/29 00:39:10;;;;;;;0.20;0.20;;;;;;;18.14;100.00;99847.91;5019928;28;20044;-58
2023/07/29 00:41:35;;;;;;;0.10;0.10;;;;;;;18.12;100.00;99841.19;5022005;28;20030;-61
2023/07/29 00:44:00;;;;;;;1.55;0.17;;;;;;;18.11;100.00;99850.31;5018915;28;20098;-62
2023/07/29 00:46:28;;;;;;;0.55;0.10;;;;;;;18.08;100.00;99847.06;5013888;28;20694;-64
2023/07/29 00:48:54;;;;;;;2.15;0.00;;;;;;;18.08;100.00;99857.00;5018954;28;20287;-63
2023/07/29 00:51:19;;;;;;;0.30;0.10;;;;;;;18.15;100.00;99852.22;5021641;28;20183;-63
2023/07/29 00:53:45;;;;;;;1.90;0.10;;;;;;;18.18;100.00;99851.72;5020733;28;20034;-62
2023/07/29 00:56:10;;;;;;;1.27;0.20;;;;;;;18.15;100.00;99848.72;5022737;28;20032;-60
2023/07/29 00:58:36;;;;;;;2.35;0.10;;;;;;;18.12;100.00;99855.41;5011650;28;20041;-63
2023/07/29 01:01:01;;;;;;;0.73;0.10;;;;;;;18.09;100.00;99856.72;5015731;28;20049;-54
2023/07/29 01:03:27;;;;;;;0.25;0.25;;;;;;;18.11;100.00;99859.16;5022338;28;20033;-55
2023/07/29 01:06:27;;;;;;;0.00;0.00;;;;;;;18.10;100.00;99854.88;5014441;28;20038;-63
2023/07/29 01:09:02;;;;;;;3.45;0.00;;;;;;;18.16;100.00;99861.88;5017866;28;20144;-60
2023/07/29 01:11:43;;;;;;;0.10;0.10;;;;;;;18.17;100.00;99865.38;5021552;28;20052;-59
2023/07/29 01:14:31;;;;;;;0.10;0.10;;;;;;;18.24;100.00;99856.03;5016412;28;20063;-56
2023/07/29 01:17:02;;;;;;;0.82;0.00;;;;;;;18.14;100.00;99849.78;5018524;28;20032;-59
2023/07/29 01:19:42;;;;;;;0.17;0.13;;;;;;;18.12;100.00;99855.41;5021467;28;20390;-61
2023/07/29 01:22:08;;;;;;;2.05;0.13;;;;;;;18.01;100.00;99851.81;5015991;28;20121;-64
2023/07/29 01:24:34;;;;;;;2.90;0.38;;;;;;;18.04;100.00;99847.81;5022499;28;20494;-62
2023/07/29 01:27:01;;;;;;;1.88;0.32;;;;;;;18.01;100.00;99851.03;5021583;28;20128;-63
2023/07/29 01:29:27;;;;;;;0.80;0.60;;;;;;;18.12;100.00;99855.41;5021905;28;20079;-62
2023/07/29 01:31:56;;;;;;;1.15;0.47;;;;;;;18.02;100.00;99858.03;5018726;28;20511;-56
2023/07/29 01:35:14;;;;;;;1.60;0.40;;;;;;;18.15;100.00;99857.59;5020231;28;20494;-54
2023/07/29 01:37:42;;;;;;;2.22;0.40;;;;;;;18.17;100.00;99847.38;5037682;28;20044;-59
2023/07/29 01:40:09;;;;;;;2.00;0.63;;;;;;;18.14;100.00;99845.22;5020207;28;20038;-61
2023/07/29 01:42:34;;;;;;;3.13;0.47;;;;;;;18.18;100.00;99834.81;5020182;28;20030;-60
2023/07/29 01:45:00;;;;;;;3.30;0.28;;;;;;;18.18;100.00;99832.13;5023549;28;20079;-53
2023/07/29 01:47:25;;;;;;;0.93;0.68;;;;;;;18.19;100.00;99825.69;5015854;28;20057;-63
2023/07/29 01:49:51;;;;;;;3.30;0.65;;;;;;;18.19;100.00;99833.72;5012830;28;20091;-62
2023/07/29 01:52:16;;;;;;;4.32;0.40;;;;;;;18.21;100.00;99831.59;5021281;28;20061;-53
2023/07/29 01:54:41;;;;;;;1.15;0.32;;;;;;;18.17;100.00;99836.66;5020908;28;20429;-58
2023/07/29 01:57:07;;;;;;;1.10;0.30;;;;;;;18.17;100.00;99823.25;5015759;28;20037;-62
2023/07/29 01:59:32;;;;;;;1.10;0.17;;;;;;;18.22;100.00;99825.16;5015447;28;20030;-59
2023/07/29 02:01:57;;;;;;;0.80;0.30;;;;;;;18.23;100.00;99819.56;5020673;28;20471;-63
2023/07/29 02:04:23;;;;;;;1.38;0.80;;;;;;;18.22;100.00;99825.16;5021224;28;20034;-63
2023/07/29 02:06:48;;;;;;;1.45;0.40;;;;;;;18.19;100.00;99820.31;5018365;28;20033;-62
2023/07/29 02:09:13;;;;;;;0.80;0.38;;;;;;;18.16;100.00;99821.63;5020417;28;20045;-64
2023/07/29 02:11:38;;;;;;;3.20;0.50;;;;;;;18.10;100.00;99820.00;5019611;28;20034;-59
2023/07/29 02:14:04;;;;;;;3.03;0.40;;;;;;;18.04;100.00;99823.69;5016579;28;20021;-63
2023/07/29 02:16:29;;;;;;;1.95;0.20;;;;;;;18.08;100.00;99830.97;5019260;28;20041;-60
2023/07/29 02:18:54;;;;;;;3.42;0.15;;;;;;;18.11;100.00;99820.78;5019731;28;20097;-52
2023/07/29 02:21:20;;;;;;;1.58;0.28;;;;;;;18.07;100.00;99813.25;5017282;28;20074;-63
2023/07/29 02:23:45;;;;;;;2.72;0.63;;;;;;;18.09;100.00;99826.41;5019424;28;20034;-64
2023/07/29 02:26:10;;;;;;;2.03;0.40;;;;;;;18.01;100.00;99824.19;5020862;28;20026;-54
2023/07/29 02:28:36;;;;;;;1.38;0.70;;;;;;;18.00;100.00;99820.72;5019699;28;20453;-62
2023/07/29 02:31:19;;;;;;;4.32;0.43;;;;;;;18.07;100.00;99807.91;5019054;28;20498;-53
2023/07/29 02:33:45;;;;;;;2.05;0.70;;;;;;;18.06;100.00;99813.50;5017360;28;20030;-52
2023/07/29 02:36:12;;;;;;;1.85;0.40;;;;;;;18.06;100.00;99811.63;5024283;28;20030;-57
2023/07/29 02:38:38;;;;;;;3.40;0.63;;;;;;;18.03;100.00;99808.66;5017680;28;20489;-59
2023/07/29 02:41:03;;;;;;;2.80;0.40;;;;;;;17.97;100.00;99818.53;5022882;28;20025;-60
2023/07/29 02:43:28;;;;;;;1.95;0.45;;;;;;;18.03;100.00;99814.03;5012007;28;20030;-63
2023/07/29 02:45:53;;;;;;;3.55;0.57;;;;;;;18.00;100.00;99809.97;5024500;28;20531;-60
2023/07/29 02:48:19;;;;;;;1.92;0.50;;;;;;;18.04;100.00;99808.41;5024349;28;20052;-63
2023/07/29 02:50:44;;;;;;;1.48;0.65;;;;;;;18.11;100.00;99804.69;5014641;28;20427;-61
2023/07/29 02:53:09;;;;;;;0.73;0.30;;;;;;;18.07;100.00;99807.06;5015813;28;20490;-61
2023/07/29 02:55:35;;;;;;;1.17;0.43;;;;;;;18.15;100.00;99808.47;5023092;28;20045;-60
2023/07/29 02:58:00;;;;;;;3.53;0.65;;;;;;;18.17;100.00;99801.78;5019910;28;20029;-60
2023/07/29 03:00:26;;;;;;;0.85;0.38;;;;;;;18.16;100.00;99804.75;5023166;28;20025;-63
2023/07/29 03:02:51;;;;;;;0.57;0.40;;;;;;;18.19;100.00;99805.03;5015527;28;20164;-63
2023/07/29 03:05:16;;;;;;;0.57;0.57;;;;;;;18.16;100.00;99808.22;5017671;28;20061;-54
2023/07/29 03:07:42;;;;;;;1.15;0.50;;;;;;;18.16;100.00;99807.41;5017752;28;20124;-61
2023/07/29 03:10:07;;;;;;;10.07;0.80;;;;;;;18.16;100.00;99802.84;5020847;28;20046;-52
2023/07/29 03:12:32;;;;;;;0.90;0.20;;;;;;;18.13;100.00;99802.56;5018555;28;20363;-61
2023/07/29 03:14:59;;;;;;;2.42;0.60;;;;;;;18.16;100.00;99804.75;5020589;28;20030;-58
2023/07/29 03:17:25;;;;;;;4.63;0.43;;;;;;;18.23;100.00;99791.91;5020660;28;20424;-62
2023/07/29 03:19:51;;;;;;;0.43;0.28;;;;;;;18.16;100.00;99805.53;5022588;28;20030;-59
2023/07/29 03:22:17;;;;;;;0.95;0.38;;;;;;;18.11;100.00;99802.81;5024082;28;20058;-61
2023/07/29 03:24:42;;;;;;;3.55;0.88;;;;;;;18.09;100.00;99804.94;5016055;28;20442;-62
2023/07/29 03:27:09;;;;;;;1.02;0.68;;;;;;;18.03;100.00;99795.25;5024735;28;20508;-62
2023/07/29 03:29:35;;;;;;;2.10;0.98;;;;;;;18.00;100.00;99796.56;5020170;28;20038;-62
2023/07/29 03:32:01;;;;;;;1.38;0.55;;;;;;;17.93;100.00;99790.63;5019399;28;20112;-62
2023/07/29 03:34:26;;;;;;;1.70;0.40;;;;;;;17.84;100.00;99798.31;5029521;28;20374;-62
2023/07/29 03:36:51;;;;;;;2.40;0.73;;;;;;;17.82;100.00;99799.66;5023991;28;20502;-62
2023/07/29 03:39:16;;;;;;;2.15;0.75;;;;;;;17.77;100.00;99800.38;5022798;28;20033;-62
2023/07/29 03:41:42;;;;;;;2.92;0.40;;;;;;;17.76;100.00;99797.94;5022002;28;20049;-63
2023/07/29 03:44:07;;;;;;;4.55;0.80;;;;;;;17.70;100.00;99793.59;5023793;28;20030;-54
2023/07/29 03:46:33;;;;;;;3.85;0.70;;;;;;;17.63;100.00;99799.16;5020814;28;20033;-61
2023/07/29 03:48:58;;;;;;;2.13;0.63;;;;;;;17.66;100.00;99806.72;5023929;28;20569;-62
2023/07/29 03:51:24;;;;;;;2.45;0.95;;;;;;;17.63;100.00;99800.00;5018808;28;20192;-62
2023/07/29 03:53:50;;;;;;;1.67;0.30;;;;;;;17.58;100.00;99802.63;5023083;28;20423;-60
2023/07/29 03:56:15;;;;;;;5.18;0.82;;;;;;;17.66;100.00;99806.72;5018975;28;20115;-62
2023/07/29 03:58:41;;;;;;;4.28;0.90;;;;;;;17.70;100.00;99813.16;5019791;28;20086;-62
2023/07/29 04:01:06;;;;;;;2.15;0.40;;;;;;;17.63;100.00;99808.03;5021255;28;20042;-62
2023/07/29 04:03:33;;;;;;;3.80;0.32;;;;;;;17.63;100.00;99812.56;5023609;28;20398;-61
2023/07/29 04:05:59;;;;;;;3.25;0.50;;;;;;;17.63;100.00;99817.91;5014336;28;20029;-59
2023/07/29 04:08:25;;;;;;;2.05;0.50;;;;;;;17.66;100.00;99818.25;5022991;28;20040;-60
2023/07/29 04:10:50;;;;;;;3.10;0.50;;;;;;;17.64;100.00;99809.63;5018368;28;20509;-58
2023/07/29 04:13:15;;;;;;;2.13;0.98;;;;;;;17.63;100.00;99812.56;5023202;28;20044;-61
2023/07/29 04:15:41;;;;;;;9.50;1.95;;;;;;;17.58;100.00;99802.63;5017508;28;20115;-62
2023/07/29 04:18:06;;;;;;;6.50;1.27;;;;;;;17.57;100.00;99802.88;5022477;28;20029;-60
2023/07/29 04:20:33;;;;;;;1.65;0.63;;;;;;;17.56;100.00;99809.31;5021903;28;20071;-61
2023/07/29 04:22:58;;;;;;;7.18;0.82;;;;;;;17.56;100.00;99806.63;5023665;28;20104;-50
2023/07/29 04:25:24;;;;;;;6.85;1.00;;;;;;;17.56;100.00;99806.63;5018787;28;20105;-57
2023/07/29 04:27:49;;;;;;;2.00;1.38;;;;;;;17.50;100.00;99812.97;5022341;28;20033;-63
2023/07/29 04:30:15;;;;;;;3.10;0.52;;;;;;;17.46;100.00;99807.31;5018132;28;20029;-62
2023/07/29 04:32:42;;;;;;;6.40;1.00;;;;;;;17.44;100.00;99802.19;5036383;28;20053;-63
2023/07/29 04:35:10;;;;;;;1.83;0.50;;;;;;;17.50;100.00;99815.66;5021934;28;20033;-62
2023/07/29 04:37:35;;;;;;;4.20;0.65;;;;;;;17.43;100.00;99826.59;5003533;28;20034;-58
2023/07/29 04:40:01;;;;;;;5.38;0.70;;;;;;;17.39;100.00;99822.78;5023442;28;20087;-62
2023/07/29 04:42:26;;;;;;;3.33;0.68;;;;;;;17.43;100.00;99818.56;5022345;28;20029;-61
2023/07/29 04:44:52;;;;;;;2.55;1.55;;;;;;;17.44;100.00;99814.78;5021558;28;20128;-58
2023/07/29 04:47:17;;;;;;;6.40;1.58;;;;;;;17.43;100.00;99803.28;5021864;28;20028;-62
2023/07/29 04:49:43;;;;;;;5.60;0.57;;;;;;;17.44;100.00;99815.59;5023297;28;20437;-59
2023/07/29 04:52:08;;;;;;;7.18;0.82;;;;;;;17.43;100.00;99819.34;5020413;28;20032;-63
2023/07/29 04:54:33;;;;;;;5.53;0.65;;;;;;;17.49;100.00;99828.25;5016710;28;20029;-62
2023/07/29 04:56:59;;;;;;;2.95;0.30;;;;;;;17.56;100.00;99818.16;5015781;28;20269;-61
2023/07/29 04:59:24;;;;;;;2.00;0.82;;;;;;;17.63;100.00;99817.91;5020866;28;20064;-62
2023/07/29 05:01:49;;;;;;;0.73;0.40;;;;;;;17.76;100.00;99824.75;5021365;28;20041;-60
2023/07/29 05:04:15;;;;;;;5.82;1.35;;;;;;;17.77;100.00;99815.66;5019012;28;20079;-64
2023/07/29 05:06:40;;;;;;;4.88;1.40;;;;;;;17.79;100.00;99817.06;5021292;28;20454;-61
2023/07/29 05:09:13;;;;;;;5.68;0.68;;;;;;;17.86;100.00;99811.47;5021217;28;20037;-61
2023/07/29 05:11:39;;;;;;;1.90;0.47;;;;;;;17.90;100.00;99801.06;5019912;28;20029;-62
2023/07/29 05:14:06;;;;;;;3.00;0.65;;;;;;;17.93;100.00;99795.16;5020547;28;20069;-62
2023/07/29 05:16:31;;;;;;;0.68;0.40;;;;;;;17.97;100.00;99798.97;5022682;28;20029;-60
2023/07/29 05:18:56;;;;;;;3.10;2.38;;;;;;;17.88;100.00;99799.41;5020625;28;20036;-59
2023/07/29 05:21:22;;;;;;;1.13;0.70;;;;;;;17.88;100.00;99798.63;5015733;28;20056;-62
2023/07/29 05:23:47;;;;;;;1.83;0.73;;;;;;;17.85;100.00;99805.28;5021282;28;20048;-62
2023/07/29 05:26:12;;;;;;;3.05;0.98;;;;;;;17.86;100.00;99811.47;5022169;28;20030;-59
2023/07/29 05:28:38;;;;;;;4.70;0.57;;;;;;;17.87;100.00;99815.78;5023111;28;20037;-61
2023/07/29 05:31:03;;;;;;;3.55;0.70;;;;;;;17.87;100.00;99823.81;5015083;28;20043;-55
2023/07/29 05:33:28;;;;;;;4.45;0.77;;;;;;;17.85;100.00;99818.69;5022607;28;20029;-55
2023/07/29 05:35:54;;;;;;;2.88;1.17;;;;;;;17.86;100.00;99823.03;5020928;28;20052;-52
2023/07/29 05:38:20;;;;;;;2.70;0.60;;;;;;;17.89;100.00;99824.38;5021986;28;20104;-62
2023/07/29 05:40:47;;;;;;;2.97;1.00;;;;;;;17.95;100.00;99830.59;5017171;28;20591;-56
2023/07/29 05:43:14;;;;;;;3.17;0.93;;;;;;;17.91;100.00;99821.44;5016759;28;20064;-53
2023/07/29 05:45:39;;;;;;;5.32;0.70;;;;;;;17.91;100.00;99827.59;5019845;28;20036;-61
2023/07/29 05:48:04;;;;;;;2.22;0.60;;;;;;;17.94;100.00;99821.75;5022247;28;20047;-57
2023/07/29 05:50:30;;;;;;;0.95;0.68;;;;;;;17.84;100.00;99814.41;5020347;28;20128;-57
2023/07/29 05:52:55;;;;;;;6.30;2.17;;;;;;;17.94;100.00;99816.38;5020433;28;20033;-63
2023/07/29 05:55:20;;;;;;;5.18;0.50;;;;;;;18.00;100.00;99823.41;5020708;28;20442;-62
2023/07/29 05:57:46;;;;;;;4.72;1.75;;;;;;;18.00;100.00;99818.03;5021740;28;20033;-60
2023/07/29 06:00:11;;;;;;;4.90;1.30;;;;;;;18.03;100.00;99814.84;5019423;28;20489;-62
2023/07/29 06:02:37;;;;;;;2.97;0.40;;;;;;;18.09;100.00;99810.31;5022509;28;20600;-61
2023/07/29 06:05:03;;;;;;;1.42;0.73;;;;;;;18.21;100.00;99813.63;5017426;28;20026;-53
2023/07/29 06:07:30;;;;;;;1.27;0.73;;;;;;;18.36;100.00;99814.81;5017764;28;20157;-62
2023/07/29 06:09:56;;;;;;;3.88;0.77;;;;;;;18.38;100.00;99813.50;5021715;28;20033;-53
2023/07/29 06:12:21;;;;;;;2.28;0.60;;;;;;;18.48;100.00;99804.66;5019788;28;20036;-64
2023/07/29 06:14:46;;;;;;;5.95;1.33;;;;;;;18.41;100.00;99812.16;5017176;28;20476;-55
2023/07/29 06:17:11;;;;;;;2.25;0.82;;;;;;;18.59;100.00;99810.94;5016985;28;20041;-62
2023/07/29 06:19:38;;;;;;;7.60;0.70;;;;;;;18.65;100.00;99815.25;5020725;28;20044;-59
2023/07/29 06:22:04;;;;;;;3.05;1.00;;;;;;;18.66;100.00;99819.53;5018200;28;20491;-64
2023/07/29 06:24:29;;;;;;;2.15;0.82;;;;;;;18.76;100.00;99818.81;5021298;28;20032;-59
2023/07/29 06:26:54;;;;;;;2.92;0.65;;;;;;;18.79;100.00;99812.91;5021177;28;20041;-63
2023/07/29 06:29:20;;;;;;;4.28;1.05;;;;;;;18.79;100.00;99802.97;5018999;28;20192;-64
2023/07/29 06:31:45;;;;;;;3.53;0.93;;;;;;;18.90;100.00;99803.84;5020796;28;20025;-61
2023/07/29 06:34:10;;;;;;;2.85;0.68;;;;;;;18.90;100.00;99804.66;5019257;28;20124;-53
2023/07/29 06:36:36;;;;;;;6.30;0.63;;;;;;;18.99;100.00;99809.53;5022275;28;20040;-61
2023/07/29 06:39:01;;;;;;;4.57;1.65;;;;;;;18.98;100.00;99806.03;5019004;28;20121;-56
2023/07/29 06:41:26;;;;;;;2.60;0.52;;;;;;;18.94;100.00;99808.41;5022157;28;20026;-58
2023/07/29 06:43:52;;;;;;;5.05;0.47;;;;;;;18.97;100.00;99807.09;5012350;28;20033;-62
2023/07/29 06:46:17;;;;;;;3.28;0.60;;;;;;;19.10;100.00;99809.31;5021870;28;20029;-65
2023/07/29 06:48:42;;;;;;;3.97;0.45;;;;;;;19.15;100.00;99811.19;5021002;28;20433;-63
2023/07/29 06:51:08;;;;;;;2.30;0.52;;;;;;;19.22;100.00;99805.56;5019432;28;20317;-62
2023/07/29 06:53:33;;;;;;;1.92;0.47;;;;;;;19.37;100.00;99806.41;5014340;28;20529;-60
2023/07/29 06:55:59;;;;;;;2.20;0.40;;;;;;;19.34;100.00;99803.47;5020167;28;21319;-58
2023/07/29 06:58:25;;;;;;;1.33;0.55;;;;;;;19.31;100.00;99810.16;5018942;28;20034;-63
2023/07/29 07:00:50;;;;;;;1.08;0.60;;;;;;;19.18;100.00;99810.69;5019681;28;20053;-63
2023/07/29 07:03:15;;;;;;;0.20;0.20;;;;;;;19.14;100.00;99815.75;5018786;28;20025;-60
2023/07/29 07:05:41;;;;;;;0.98;0.40;;;;;;;19.19;100.00;99812.28;5021075;28;20037;-53
2023/07/29 07:08:06;;;;;;;1.83;0.93;;;;;;;19.30;100.00;99813.13;5013426;28;20037;-56
2023/07/29 07:10:33;;;;;;;1.67;0.35;;;;;;;19.44;100.00;99822.31;5021039;28;20111;-61
2023/07/29 07:12:59;;;;;;;0.43;0.43;;;;;;;19.51;100.00;99808.59;5018692;28;20056;-56
2023/07/29 07:15:24;;;;;;;1.75;0.40;;;;;;;19.70;100.00;99804.34;5017657;28;20515;-62
2023/07/29 07:17:51;;;;;;;1.00;0.32;;;;;;;19.81;100.00;99808.66;5021588;28;20483;-57
2023/07/29 07:20:16;;;;;;;5.57;0.68;;;;;;;19.87;100.00;99801.38;5021799;28;20490;-55
2023/07/29 07:22:42;;;;;;;3.92;0.75;;;;;;;19.86;100.00;99798.97;5015435;28;20099;-57
2023/07/29 07:25:08;;;;;;;2.05;0.30;;;;;;;19.89;100.00;99799.25;5017387;28;20037;-55
2023/07/29 07:27:33;;;;;;;3.85;0.90;;;;;;;19.79;100.00;99788.47;5023547;28;20049;-60
2023/07/29 07:29:59;;;;;;;1.38;0.55;;;;;;;19.90;100.00;99787.38;5024279;28;20042;-53
2023/07/29 07:32:24;;;;;;;3.70;0.77;;;;;;;20.01;100.00;99796.28;5022524;28;20175;-59
2023/07/29 07:34:49;;;;;;;3.72;0.20;;;;;;;20.02;100.00;99787.13;5023727;28;20033;-56
2023/07/29 07:37:15;;;;;;;0.63;0.43;;;;;;;20.07;100.00;99805.16;5020006;28;20037;-64
2023/07/29 07:39:40;;;;;;;4.90;1.63;;;;;;;20.02;100.00;99797.91;5023250;28;20132;-62
2023/07/29 07:42:06;;;;;;;0.90;0.20;;;;;;;19.95;100.00;99791.97;5022919;28;20029;-64
2023/07/29 07:44:31;;;;;;;1.17;0.20;;;;;;;20.03;100.00;99794.13;5025123;28;20113;-65
2023/07/29 07:46:57;;;;;;;0.70;0.38;;;;;;;20.20;100.00;99786.56;5021189;28;20491;-66
2023/07/29 07:49:22;;;;;;;1.08;1.02;;;;;;;20.36;100.00;99802.69;5023869;28;20072;-63
2023/07/29 07:51:48;;;;;;;4.72;1.17;;;;;;;20.13;100.00;99796.00;5022873;28;20033;-56
2023/07/29 07:54:13;;;;;;;3.72;0.57;;;;;;;20.38;100.00;99789.78;5021259;28;20526;-53
2023/07/29 07:56:38;;;;;;;1.38;0.30;;;;;;;20.80;100.00;99794.00;5023153;28;20041;-52
2023/07/29 07:59:04;;;;;;;2.38;0.65;;;;;;;21.02;100.00;99790.94;5023068;28;20033;-51
2023/07/29 08:01:35;;;;;;;2.50;0.55;;;;;;;21.07;100.00;99788.22;5022632;28;20041;-57
2023/07/29 08:04:01;;;;;;;2.67;0.50;;;;;;;20.78;100.00;99778.13;5019646;28;20063;-61
2023/07/29 08:06:26;;;;;;;3.13;0.40;;;;;;;21.10;100.00;99776.88;5025246;28;20068;-58
2023/07/29 08:08:51;;;;;;;2.17;0.55;;;;;;;21.26;100.00;99780.28;5017511;28;20121;-61
2023/07/29 08:11:17;;;;;;;3.85;1.02;;;;;;;21.52;100.00;99776.38;5024276;28;20087;-60
2023/07/29 08:13:42;;;;;;;2.90;0.40;;;;;;;21.89;100.00;99775.03;5022855;28;20402;-59
2023/07/29 08:16:07;;;;;;;0.75;0.10;;;;;;;21.89;100.00;99777.72;5015841;28;20063;-65
2023/07/29 08:18:33;;;;;;;3.92;1.58;;;;;;;21.52;100.00;99773.66;5024274;28;20116;-64
2023/07/29 08:21:02;;;;;;;1.67;0.60;;;;;;;21.34;100.00;99785.09;5022505;28;20056;-64
2023/07/29 08:23:28;;;;;;;0.95;0.82;;;;;;;21.32;100.00;99779.16;5020300;28;20527;-60
2023/07/29 08:25:56;;;;;;;1.30;0.40;;;;;;;21.45;100.00;99775.06;5017273;28;20054;-59
2023/07/29 08:28:22;;;;;;;1.15;0.30;;;;;;;21.56;100.00;99769.34;5022984;28;20153;-59
2023/07/29 08:30:47;;;;;;;1.15;0.25;;;;;;;21.39;100.00;99776.19;5018534;28;20040;-57
2023/07/29 08:33:12;;;;;;;2.38;0.20;;;;;;;21.05;100.00;99776.91;5025518;28;20033;-65
2023/07/29 08:35:38;;;;;;;1.85;0.30;;;;;;;21.12;100.00;99770.13;5021704;28;20042;-52
2023/07/29 08:38:04;;;;;;;0.85;0.20;;;;;;;21.49;100.00;99773.44;5022993;28;20499;-63
2023/07/29 08:40:31;;;;;;;1.20;0.17;;;;;;;22.00;100.00;99767.63;5021732;28;20725;-63
2023/07/29 08:42:58;;;;;;;1.55;0.20;;;;;;;22.59;100.00;99754.91;5023478;28;20029;-61
2023/07/29 08:45:25;;;;;;;0.95;0.43;;;;;;;22.60;100.00;99756.50;5021383;28;20030;-54
2023/07/29 08:47:55;;;;;;;2.15;0.57;;;;;;;22.40;100.00;99763.72;5023465;28;20401;-62
2023/07/29 08:50:21;;;;;;;0.68;0.00;;;;;;;22.13;100.00;99758.88;5017029;28;20040;-62
2023/07/29 08:52:49;;;;;;;1.38;0.30;;;;;;;21.91;100.00;99761.22;5015845;28;20037;-66
2023/07/29 08:55:14;;;;;;;0.70;0.30;;;;;;;21.94;100.00;99763.34;5018751;28;20045;-54
2023/07/29 08:57:40;;;;;;;0.93;0.20;;;;;;;22.15;100.00;99764.78;5015938;28;20060;-61
2023/07/29 09:00:06;;;;;;;1.73;0.20;;;;;;;21.93;100.00;99759.06;5016611;28;20507;-64
2023/07/29 09:02:31;;;;;;;0.80;0.10;;;;;;;22.20;100.00;99766.66;5014362;28;20041;-57
2023/07/29 09:04:57;;;;;;;2.45;0.95;;;;;;;22.66;100.00;99766.16;5018997;28;20095;-55
2023/07/29 09:07:22;;;;;;;1.48;0.52;;;;;;;22.76;100.00;99765.22;5016458;28;20245;-62
2023/07/29 09:09:47;;;;;;;2.17;0.40;;;;;;;22.96;100.00;99751.44;5023782;28;20493;-53
2023/07/29 09:12:13;;;;;;;2.15;0.20;;;;;;;23.17;100.00;99754.69;5016500;28;20044;-61
2023/07/29 09:14:38;;;;;;;0.70;0.43;;;;;;;23.12;100.00;99762.09;5016785;28;20067;-62
2023/07/29 09:17:08;;;;;;;2.38;0.32;;;;;;;23.66;100.00;99753.41;5019428;28;20033;-62
2023/07/29 09:19:33;;;;;;;1.38;0.15;;;;;;;23.75;100.00;99752.75;5015598;28;20104;-60
2023/07/29 09:21:59;;;;;;;0.30;0.28;;;;;;;23.50;100.00;99752.06;5017090;28;20117;-63
2023/07/29 09:24:25;;;;;;;1.35;0.20;;;;;;;23.55;100.00;99759.31;5021031;28;20108;-60
2023/07/29 09:26:53;;;;;;;2.17;0.47;;;;;;;23.81;100.00;99752.41;5016527;28;20049;-65
2023/07/29 09:29:23;;;;;;;1.45;0.30;;;;;;;23.83;100.00;99754.81;5017787;28;20151;-60
2023/07/29 09:31:49;;;;;;;0.43;0.10;;;;;;;23.94;100.00;99753.53;5016271;28;20033;-66
2023/07/29 09:34:15;;;;;;;4.53;1.45;;;;;;;24.19;100.00;99757.69;5016980;28;20036;-55
2023/07/29 09:36:41;;;;;;;1.83;0.22;;;;;;;23.87;100.00;99745.78;5021917;28;20053;-67
2023/07/29 09:39:11;;;;;;;4.25;0.55;;;;;;;23.53;100.00;99754.19;5023070;28;20075;-65
2023/07/29 09:41:36;;;;;;;1.05;0.05;;;;;;;23.30;100.00;99764.78;5016275;28;20399;-63
2023/07/29 09:44:03;;;;;;;2.10;0.15;;;;;;;22.77;100.00;99769.53;5018046;28;20029;-69
2023/07/29 09:46:34;;;;;;;1.95;0.43;;;;;;;22.60;100.00;99767.31;5020939;28;20387;-53
2023/07/29 09:49:01;;;;;;;1.88;0.20;;;;;;;22.91;100.00;99786.66;5018256;28;20328;-62
2023/07/29 09:51:26;;;;;;;2.08;0.30;;;;;;;22.45;100.00;99787.19;5017412;28;20037;-64
2023/07/29 09:53:52;;;;;;;1.35;0.50;;;;;;;21.90;100.00;99789.31;5011575;28;20034;-63
2023/07/29 09:56:17;;;;;;;1.30;0.17;;;;;;;22.02;100.00;99795.16;5010671;28;20040;-67
2023/07/29 09:58:47;;;;;;;1.08;0.10;;;;;;;21.94;100.00;99795.75;5016255;28;20033;-65
2023/07/29 10:01:14;;;;;;;1.95;0.40;;;;;;;22.39;100.00;99786.44;5013697;28;20589;-64
2023/07/29 10:03:40;;;;;;;0.75;0.10;;;;;;;23.11;100.00;99785.63;5019769;28;20420;-66
2023/07/29 10:06:06;;;;;;;1.98;0.20;;;;;;;23.54;100.00;99796.34;5016728;28;20072;-61
2023/07/29 10:08:35;;;;;;;2.78;0.15;;;;;;;23.08;100.00;99794.31;5021987;28;20095;-67
2023/07/29 10:11:01;;;;;;;1.85;0.20;;;;;;;23.01;100.00;99788.47;5018717;28;20033;-56
2023/07/29 10:13:27;;;;;;;1.08;0.10;;;;;;;22.92;100.00;99795.56;5015443;28;20383;-68
2023/07/29 10:15:55;;;;;;;0.98;0.20;;;;;;;22.99;100.00;99791.44;5020132;28;20033;-61
2023/07/29 10:18:22;;;;;;;3.22;0.30;;;;;;;23.36;100.00;99789.06;5020651;28;20038;-67
2023/07/29 10:20:52;;;;;;;1.95;0.28;;;;;;;23.82;100.00;99791.88;5011842;28;20040;-62
2023/07/29 10:23:19;;;;;;;0.65;0.05;;;;;;;23.72;100.00;99787.47;5005262;28;20533;-60
2023/07/29 10:25:57;;;;;;;0.68;0.10;;;;;;;23.62;100.00;99781.34;5017537;28;20033;-66
2023/07/29 10:28:25;;;;;;;1.15;0.10;;;;;;;23.93;100.00;99784.38;5020631;28;20042;-58
2023/07/29 10:30:51;;;;;;;3.00;0.20;;;;;;;24.06;100.00;99774.69;5015184;28;20034;-57
2023/07/29 10:33:17;;;;;;;1.00;0.22;;;;;;;24.20;100.00;99780.16;5019157;28;20057;-60
2023/07/29 10:35:42;;;;;;;2.08;0.20;;;;;;;24.52;100.00;99784.72;5018436;28;20056;-60
2023/07/29 10:38:08;;;;;;;2.35;0.65;;;;;;;24.83;100.00;99784.13;5012552;28;20483;-66
2023/07/29 10:40:59;;;;;;;1.90;0.40;;;;;;;25.00;100.00;99789.72;5011696;28;20037;-55
2023/07/29 10:43:37;;;;;;;1.88;0.38;;;;;;;25.41;100.00;99786.13;5022032;28;20034;-61
2023/07/29 10:46:22;;;;;;;3.33;0.20;;;;;;;25.68;100.00;99796.06;5015298;28;20038;-61
2023/07/29 10:48:51;;;;;;;3.00;0.45;;;;;;;25.52;100.00;99789.41;5015653;28;20458;-51
2023/07/29 10:51:32;;;;;;;1.27;0.47;;;;;;;25.61;98.77;99785.66;5017359;28;20690;-61
2023/07/29 10:54:01;;;;;;;2.45;0.20;;;;;;;25.75;100.00;99782.06;5020520;28;20398;-57
2023/07/29 10:56:29;;;;;;;1.33;0.65;;;;;;;26.05;97.67;99794.91;5022254;28;20037;-66
2023/07/29 10:59:02;;;;;;;3.22;0.10;;;;;;;25.80;92.88;99788.19;5024048;28;20035;-67
2023/07/29 11:01:32;;;;;;;1.65;0.32;;;;;;;25.98;88.87;99791.03;5021381;28;20128;-50
2023/07/29 11:04:23;;;;;;;1.30;0.45;;;;;;;26.16;92.97;99781.88;5020105;28;20083;-65
2023/07/29 11:07:04;;;;;;;3.88;0.25;;;;;;;25.90;84.46;99798.03;5024587;28;20033;-64
2023/07/29 11:09:48;;;;;;;2.30;0.73;;;;;;;26.14;90.55;99772.44;5024059;28;20029;-61
2023/07/29 11:12:32;;;;;;;2.15;0.00;;;;;;;26.17;84.93;99769.88;5031159;28;20045;-66
2023/07/29 11:15:00;;;;;;;0.90;0.00;;;;;;;26.30;87.67;99782.56;5025863;28;20060;-64
2023/07/29 11:17:26;;;;;;;1.48;0.10;;;;;;;25.93;86.36;99783.81;5025057;28;20391;-61
2023/07/29 11:19:51;;;;;;;1.35;0.20;;;;;;;26.21;86.65;99772.78;5026324;28;20045;-60
2023/07/29 11:22:18;;;;;;;1.05;0.10;;;;;;;26.05;86.33;99772.41;5017715;28;20677;-54
2023/07/29 11:24:43;;;;;;;0.30;0.30;;;;;;;25.94;82.65;99779.19;5022705;28;20033;-64